sensor_id;sensor_type;location;lat;lon;timestamp;P1;durP1;ratioP1;P2;durP2;ratioP2
24713;SDS011;12820;51.580;5.010;2023-02-15T00:02:35;79.43;;;37.72;;
24713;SDS011;12820;51.580;5.010;2023-02-15T00:07:37;68.03;;;33.97;;
24713;SDS011;12820;51.580;5.010;2023-02-15T00:12:39;68.53;;;32.40;;
24713;SDS011;12820;51.580;5.010;2023-02-15T00:17:41;69.65;;;31.33;;
24713;SDS011;12820;51.580;5.010;2023-02-15T00:22:43;67.88;;;30.92;;
24713;SDS011;12820;51.580;5.010;2023-02-15T00:27:45;66.55;;;30.60;;
24713;SDS011;12820;51.580;5.010;2023-02-15T00:32:47;66.60;;;30.65;;
24713;SDS011;12820;51.580;5.010;2023-02-15T00:37:50;64.70;;;30.52;;
24713;SDS011;12820;51.580;5.010;2023-02-15T00:42:54;63.88;;;30.45;;
24713;SDS011;12820;51.580;5.010;2023-02-15T00:47:56;59.35;;;28.85;;
24713;SDS011;12820;51.580;5.010;2023-02-15T00:52:58;68.72;;;30.42;;
24713;SDS011;12820;51.580;5.010;2023-02-15T00:58:00;61.83;;;29.17;;
24713;SDS011;12820;51.580;5.010;2023-02-15T01:03:03;66.15;;;30.08;;
24713;SDS011;12820;51.580;5.010;2023-02-15T01:08:05;66.03;;;30.38;;
24713;SDS011;12820;51.580;5.010;2023-02-15T01:13:07;64.45;;;30.83;;
24713;SDS011;12820;51.580;5.010;2023-02-15T01:18:10;71.00;;;30.35;;
24713;SDS011;12820;51.580;5.010;2023-02-15T01:23:12;67.15;;;29.95;;
24713;SDS011;12820;51.580;5.010;2023-02-15T01:28:15;62.15;;;29.73;;
24713;SDS011;12820;51.580;5.010;2023-02-15T01:33:17;70.22;;;30.75;;
24713;SDS011;12820;51.580;5.010;2023-02-15T01:38:20;61.90;;;29.77;;
24713;SDS011;12820;51.580;5.010;2023-02-15T01:43:37;64.25;;;30.30;;
24713;SDS011;12820;51.580;5.010;2023-02-15T01:48:43;64.75;;;30.35;;
24713;SDS011;12820;51.580;5.010;2023-02-15T01:53:53;61.63;;;29.63;;
24713;SDS011;12820;51.580;5.010;2023-02-15T01:59:11;58.95;;;29.25;;
24713;SDS011;12820;51.580;5.010;2023-02-15T02:04:23;67.00;;;29.05;;
24713;SDS011;12820;51.580;5.010;2023-02-15T02:09:31;67.80;;;31.23;;
24713;SDS011;12820;51.580;5.010;2023-02-15T02:14:34;63.10;;;30.02;;
24713;SDS011;12820;51.580;5.010;2023-02-15T02:41:24;60.63;;;30.20;;
24713;SDS011;12820;51.580;5.010;2023-02-15T02:46:37;65.07;;;30.73;;
24713;SDS011;12820;51.580;5.010;2023-02-15T02:51:57;63.67;;;31.42;;
24713;SDS011;12820;51.580;5.010;2023-02-15T02:57:01;71.50;;;31.85;;
24713;SDS011;12820;51.580;5.010;2023-02-15T03:02:14;66.80;;;31.63;;
24713;SDS011;12820;51.580;5.010;2023-02-15T03:07:23;68.30;;;31.27;;
24713;SDS011;12820;51.580;5.010;2023-02-15T03:12:34;69.35;;;30.55;;
24713;SDS011;12820;51.580;5.010;2023-02-15T03:17:43;67.20;;;30.98;;
24713;SDS011;12820;51.580;5.010;2023-02-15T03:22:48;66.40;;;31.00;;
24713;SDS011;12820;51.580;5.010;2023-02-15T03:27:55;65.80;;;31.85;;
24713;SDS011;12820;51.580;5.010;2023-02-15T03:33:03;69.47;;;31.45;;
24713;SDS011;12820;51.580;5.010;2023-02-15T03:38:07;66.35;;;30.90;;
24713;SDS011;12820;51.580;5.010;2023-02-15T03:48:34;66.50;;;31.52;;
24713;SDS011;12820;51.580;5.010;2023-02-15T03:53:41;65.72;;;31.13;;
24713;SDS011;12820;51.580;5.010;2023-02-15T03:58:44;63.22;;;30.05;;
24713;SDS011;12820;51.580;5.010;2023-02-15T04:04:07;63.13;;;29.35;;
24713;SDS011;12820;51.580;5.010;2023-02-15T04:09:17;71.10;;;31.27;;
24713;SDS011;12820;51.580;5.010;2023-02-15T04:14:38;66.50;;;29.73;;
24713;SDS011;12820;51.580;5.010;2023-02-15T04:19:59;68.93;;;33.97;;
24713;SDS011;12820;51.580;5.010;2023-02-15T04:25:20;62.78;;;30.73;;
24713;SDS011;12820;51.580;5.010;2023-02-15T04:30:23;69.47;;;32.95;;
24713;SDS011;12820;51.580;5.010;2023-02-15T04:35:27;63.83;;;31.55;;
24713;SDS011;12820;51.580;5.010;2023-02-15T04:40:49;65.06;;;31.26;;
24713;SDS011;12820;51.580;5.010;2023-02-15T04:45:53;65.25;;;31.10;;
24713;SDS011;12820;51.580;5.010;2023-02-15T04:50:55;68.63;;;32.08;;
24713;SDS011;12820;51.580;5.010;2023-02-15T04:55:57;60.92;;;29.17;;
24713;SDS011;12820;51.580;5.010;2023-02-15T05:00:59;68.10;;;31.23;;
24713;SDS011;12820;51.580;5.010;2023-02-15T05:06:01;59.55;;;29.55;;
24713;SDS011;12820;51.580;5.010;2023-02-15T05:11:05;64.82;;;30.58;;
24713;SDS011;12820;51.580;5.010;2023-02-15T05:16:07;63.45;;;30.15;;
24713;SDS011;12820;51.580;5.010;2023-02-15T05:21:09;67.20;;;31.75;;
24713;SDS011;12820;51.580;5.010;2023-02-15T05:26:12;73.18;;;32.70;;
24713;SDS011;12820;51.580;5.010;2023-02-15T05:31:38;64.93;;;31.65;;
24713;SDS011;12820;51.580;5.010;2023-02-15T05:36:40;66.28;;;32.53;;
24713;SDS011;12820;51.580;5.010;2023-02-15T05:41:42;67.47;;;32.00;;
24713;SDS011;12820;51.580;5.010;2023-02-15T05:46:44;67.53;;;32.45;;
24713;SDS011;12820;51.580;5.010;2023-02-15T05:51:46;68.05;;;33.90;;
24713;SDS011;12820;51.580;5.010;2023-02-15T05:56:48;68.53;;;31.77;;
24713;SDS011;12820;51.580;5.010;2023-02-15T06:01:50;71.72;;;32.00;;
24713;SDS011;12820;51.580;5.010;2023-02-15T06:06:52;70.03;;;31.40;;
24713;SDS011;12820;51.580;5.010;2023-02-15T06:11:54;62.05;;;31.55;;
24713;SDS011;12820;51.580;5.010;2023-02-15T06:16:57;69.90;;;32.30;;
24713;SDS011;12820;51.580;5.010;2023-02-15T06:21:59;69.35;;;32.83;;
24713;SDS011;12820;51.580;5.010;2023-02-15T06:27:01;70.63;;;32.83;;
24713;SDS011;12820;51.580;5.010;2023-02-15T06:32:03;65.32;;;32.58;;
24713;SDS011;12820;51.580;5.010;2023-02-15T06:37:06;65.95;;;32.35;;
24713;SDS011;12820;51.580;5.010;2023-02-15T06:42:09;67.28;;;32.67;;
24713;SDS011;12820;51.580;5.010;2023-02-15T06:47:11;73.50;;;32.63;;
24713;SDS011;12820;51.580;5.010;2023-02-15T06:52:14;75.57;;;33.35;;
24713;SDS011;12820;51.580;5.010;2023-02-15T06:57:42;72.85;;;32.67;;
24713;SDS011;12820;51.580;5.010;2023-02-15T07:02:45;76.20;;;33.65;;
24713;SDS011;12820;51.580;5.010;2023-02-15T07:13:35;71.07;;;32.33;;
24713;SDS011;12820;51.580;5.010;2023-02-15T07:18:37;71.25;;;32.95;;
24713;SDS011;12820;51.580;5.010;2023-02-15T07:23:39;66.40;;;32.35;;
24713;SDS011;12820;51.580;5.010;2023-02-15T07:28:42;66.88;;;32.45;;
24713;SDS011;12820;51.580;5.010;2023-02-15T07:33:44;70.05;;;32.58;;
24713;SDS011;12820;51.580;5.010;2023-02-15T07:38:46;69.47;;;32.88;;
24713;SDS011;12820;51.580;5.010;2023-02-15T07:43:48;72.75;;;33.03;;
24713;SDS011;12820;51.580;5.010;2023-02-15T07:48:50;69.25;;;32.42;;
24713;SDS011;12820;51.580;5.010;2023-02-15T07:53:52;71.47;;;32.70;;
24713;SDS011;12820;51.580;5.010;2023-02-15T07:58:55;68.78;;;33.83;;
24713;SDS011;12820;51.580;5.010;2023-02-15T08:03:59;70.18;;;33.15;;
24713;SDS011;12820;51.580;5.010;2023-02-15T08:09:05;68.55;;;34.10;;
24713;SDS011;12820;51.580;5.010;2023-02-15T08:14:12;72.10;;;34.08;;
24713;SDS011;12820;51.580;5.010;2023-02-15T08:19:17;78.30;;;35.38;;
24713;SDS011;12820;51.580;5.010;2023-02-15T08:24:31;77.18;;;36.50;;
24713;SDS011;12820;51.580;5.010;2023-02-15T08:29:35;72.72;;;35.03;;
24713;SDS011;12820;51.580;5.010;2023-02-15T08:34:40;79.15;;;35.95;;
24713;SDS011;12820;51.580;5.010;2023-02-15T08:39:43;90.22;;;38.53;;
24713;SDS011;12820;51.580;5.010;2023-02-15T08:44:45;78.70;;;38.22;;
24713;SDS011;12820;51.580;5.010;2023-02-15T08:49:50;80.20;;;37.30;;
24713;SDS011;12820;51.580;5.010;2023-02-15T08:54:53;79.65;;;38.67;;
24713;SDS011;12820;51.580;5.010;2023-02-15T08:59:55;76.32;;;35.88;;
24713;SDS011;12820;51.580;5.010;2023-02-15T09:04:57;75.85;;;36.50;;
24713;SDS011;12820;51.580;5.010;2023-02-15T09:10:00;74.18;;;35.80;;
24713;SDS011;12820;51.580;5.010;2023-02-15T09:15:02;78.18;;;37.75;;
24713;SDS011;12820;51.580;5.010;2023-02-15T09:20:04;78.43;;;36.50;;
24713;SDS011;12820;51.580;5.010;2023-02-15T09:25:07;71.80;;;34.75;;
24713;SDS011;12820;51.580;5.010;2023-02-15T09:30:09;72.20;;;36.05;;
24713;SDS011;12820;51.580;5.010;2023-02-15T09:35:12;75.03;;;36.85;;
24713;SDS011;12820;51.580;5.010;2023-02-15T09:40:14;73.60;;;36.35;;
24713;SDS011;12820;51.580;5.010;2023-02-15T09:45:30;76.38;;;36.20;;
